Time;durP1;ratioP1;P1;durP2;ratioP2;P2;SDS_P1;SDS_P2;PMS_P1;PMS_P2;Temp;Humidity;BMP_temperature;BMP_pressure;BME280_temperature;BME280_humidity;BME280_pressure;Samples;Min_cycle;Max_cycle;Signal;HPM_P1;HPM_P2
2023/11/21 00:04:47;;;;;;;;;;;;;;;;;;10470800;28;19909;-77
2023/11/21 00:09:48;;;;;;;;;;;;;;;;;;10462655;28;19931;-76
2023/11/21 00:14:48;;;;;;;;;;;;;;;;;;10460801;28;20548;-77
2023/11/21 00:19:48;;;;;;;;;;;;;;;;;;10466376;28;19916;-80
2023/11/21 00:24:48;;;;;;;;;;;;;;;;;;10484151;28;19909;-77
2023/11/21 00:29:48;;;;;;;;;;;;;;;;;;10484551;28;19908;-77
2023/11/21 00:34:48;;;;;;;;;;;;;;;;;;10458981;28;20442;-77
2023/11/21 00:39:49;;;;;;;;;;;;;;;;;;10483844;28;19904;-76
2023/11/21 00:44:49;;;;;;;;;;;;;;;;;;10484693;28;19912;-77
2023/11/21 00:49:49;;;;;;;;;;;;;;;;;;10483181;28;19904;-78
2023/11/21 00:54:49;;;;;;;;;;;;;;;;;;10483904;28;19908;-77
2023/11/21 00:59:49;;;;;;;;;;;;;;;;;;10473987;28;19908;-77
2023/11/21 01:04:49;;;;;;;;;;;;;;;;;;10492247;28;19904;-77
2023/11/21 01:09:49;;;;;;;;;;;;;;;;;;10490915;28;20333;-81
2023/11/21 01:14:50;;;;;;;;;;;;;;;;;;10472391;28;19995;-81
2023/11/21 01:19:50;;;;;;;;;;;;;;;;;;10467814;28;20016;-75
2023/11/21 01:24:51;;;;;;;;;;;;;;;;;;10468978;28;19904;-76
2023/11/21 01:29:53;;;;;;;;;;;;;;;;;;10491893;28;20015;-76
2023/11/21 01:34:53;;;;;;;;;;;;;;;;;;10491485;28;19917;-80
2023/11/21 01:39:54;;;;;;;;;;;;;;;;;;10473696;28;20374;-77
2023/11/21 01:44:54;;;;;;;;;;;;;;;;;;10475041;28;19904;-77
2023/11/21 01:49:55;;;;;;;;;;;;;;;;;;10475786;28;19954;-76
2023/11/21 01:54:55;;;;;;;;;;;;;;;;;;10490783;28;20410;-76
2023/11/21 01:59:55;;;;;;;;;;;;;;;;;;10489568;28;19931;-81
2023/11/21 02:04:56;;;;;;;;;;;;;;;;;;10470536;28;20680;-77
2023/11/21 02:09:56;;;;;;;;;;;;;;;;;;10489207;28;19904;-77
2023/11/21 02:14:57;;;;;;;;;;;;;;;;;;10475086;28;20389;-80
2023/11/21 02:19:58;;;;;;;;;;;;;;;;;;10490372;28;20437;-79
2023/11/21 02:24:58;;;;;;;;;;;;;;;;;;10489933;28;19915;-82
2023/11/21 02:29:59;;;;;;;;;;;;;;;;;;10487996;28;19954;-80
2023/11/21 02:35:01;;;;;;;;;;;;;;;;;;10480926;28;19963;-76
2023/11/21 02:40:04;;;;;;;;;;;;;;;;;;10496772;28;19915;-77
2023/11/21 02:45:05;;;;;;;;;;;;;;;;;;10471179;28;19905;-81
2023/11/21 02:50:07;;;;;;;;;;;;;;;;;;10504855;28;19905;-79
2023/11/21 02:55:07;;;;;;;;;;;;;;;;;;10487262;28;19937;-77
2023/11/21 03:00:07;;;;;;;;;;;;;;;;;;10486716;28;20310;-76
2023/11/21 03:05:11;;;;;;;;;;;;;;;;;;10470212;28;19912;-79
2023/11/21 03:10:11;;;;;;;;;;;;;;;;;;10469952;28;20353;-77
2023/11/21 03:15:11;;;;;;;;;;;;;;;;;;10485267;28;19969;-81
2023/11/21 03:20:11;;;;;;;;;;;;;;;;;;10485376;28;20010;-76
2023/11/21 03:25:12;;;;;;;;;;;;;;;;;;10469060;28;20321;-76
2023/11/21 03:30:12;;;;;;;;;;;;;;;;;;10486898;28;19905;-77
2023/11/21 03:35:12;;;;;;;;;;;;;;;;;;10469412;28;20469;-77
2023/11/21 03:40:12;;;;;;;;;;;;;;;;;;10483742;28;20397;-77
2023/11/21 03:45:14;;;;;;;;;;;;;;;;;;10486558;28;20389;-83
2023/11/21 03:50:14;;;;;;;;;;;;;;;;;;10480765;28;19951;-77
2023/11/21 03:55:14;;;;;;;;;;;;;;;;;;10468625;28;19916;-74
2023/11/21 04:00:15;;;;;;;;;;;;;;;;;;10486709;28;20363;-79
2023/11/21 04:05:15;;;;;;;;;;;;;;;;;;10487043;28;19926;-80
2023/11/21 04:10:15;;;;;;;;;;;;;;;;;;10485730;28;19911;-75
2023/11/21 04:15:15;;;;;;;;;;;;;;;;;;10494446;28;19927;-75
2023/11/21 04:20:16;;;;;;;;;;;;;;;;;;10504573;28;19916;-72
2023/11/21 04:25:16;;;;;;;;;;;;;;;;;;10504526;28;20388;-76
2023/11/21 04:30:16;;;;;;;;;;;;;;;;;;10506162;28;19930;-77
2023/11/21 04:35:17;;;;;;;;;;;;;;;;;;10496370;28;19944;-79
2023/11/21 04:40:17;;;;;;;;;;;;;;;;;;10469097;28;19983;-77
2023/11/21 04:45:17;;;;;;;;;;;;;;;;;;10492504;28;19919;-75
2023/11/21 04:50:17;;;;;;;;;;;;;;;;;;10490818;28;19945;-79
2023/11/21 04:55:18;;;;;;;;;;;;;;;;;;10475493;28;20239;-79
2023/11/21 05:00:18;;;;;;;;;;;;;;;;;;10491282;28;19912;-77
2023/11/21 05:05:18;;;;;;;;;;;;;;;;;;10491382;28;19916;-78
2023/11/21 05:10:18;;;;;;;;;;;;;;;;;;10475227;28;19970;-81
2023/11/21 05:15:18;;;;;;;;;;;;;;;;;;10490291;28;20412;-77
2023/11/21 05:20:21;;;;;;;;;;;;;;;;;;10491155;28;20011;-76
2023/11/21 05:25:21;;;;;;;;;;;;;;;;;;10492070;28;19912;-76
2023/11/21 05:30:21;;;;;;;;;;;;;;;;;;10472231;28;20449;-77
2023/11/21 05:35:21;;;;;;;;;;;;;;;;;;10490967;28;19970;-75
2023/11/21 05:40:22;;;;;;;;;;;;;;;;;;10491854;28;19908;-80
2023/11/21 05:45:22;;;;;;;;;;;;;;;;;;10490105;28;19995;-81
2023/11/21 05:50:25;;;;;;;;;;;;;;;;;;10491147;28;19905;-80
2023/11/21 05:55:25;;;;;;;;;;;;;;;;;;10490064;28;19915;-77
2023/11/21 06:00:27;;;;;;;;;;;;;;;;;;10489791;28;19904;-77
2023/11/21 06:05:27;;;;;;;;;;;;;;;;;;10488893;28;19909;-76
2023/11/21 06:10:28;;;;;;;;;;;;;;;;;;10488393;28;20420;-78
2023/11/21 06:15:28;;;;;;;;;;;;;;;;;;10487549;28;19978;-78
2023/11/21 06:20:28;;;;;;;;;;;;;;;;;;10483976;28;19982;-77
2023/11/21 06:25:28;;;;;;;;;;;;;;;;;;10485696;28;19904;-79
2023/11/21 06:30:30;;;;;;;;;;;;;;;;;;10486591;28;19904;-78
2023/11/21 06:35:33;;;;;;;;;;;;;;;;;;10485058;28;19909;-78
2023/11/21 06:40:34;;;;;;;;;;;;;;;;;;10483949;28;20569;-78
2023/11/21 06:45:34;;;;;;;;;;;;;;;;;;10487756;28;20011;-79
2023/11/21 06:50:34;;;;;;;;;;;;;;;;;;10486966;28;19904;-76
2023/11/21 06:55:35;;;;;;;;;;;;;;;;;;10486966;28;19955;-78
2023/11/21 07:00:35;;;;;;;;;;;;;;;;;;10487686;28;19999;-81
2023/11/21 07:05:35;;;;;;;;;;;;;;;;;;10487083;28;20006;-76
2023/11/21 07:10:36;;;;;;;;;;;;;;;;;;10488811;28;20012;-77
2023/11/21 07:15:38;;;;;;;;;;;;;;;;;;10488682;28;19917;-78
2023/11/21 07:20:38;;;;;;;;;;;;;;;;;;10489426;28;20074;-74
2023/11/21 07:25:41;;;;;;;;;;;;;;;;;;10490457;28;19904;-78
2023/11/21 07:30:42;;;;;;;;;;;;;;;;;;10475294;28;19915;-76
2023/11/21 07:35:42;;;;;;;;;;;;;;;;;;10447256;28;19931;-75
2023/11/21 07:40:43;;;;;;;;;;;;;;;;;;10470796;28;19904;-77
2023/11/21 07:45:43;;;;;;;;;;;;;;;;;;10486523;28;19911;-74
2023/11/21 07:50:43;;;;;;;;;;;;;;;;;;10486264;28;19909;-77
2023/11/21 07:55:45;;;;;;;;;;;;;;;;;;10484324;28;20024;-76
2023/11/21 08:00:45;;;;;;;;;;;;;;;;;;10484104;28;19955;-77
2023/11/21 08:05:46;;;;;;;;;;;;;;;;;;10484527;28;20595;-79
2023/11/21 08:10:55;;;;;;;;;;;;;;;;;;10484896;28;19904;-77
2023/11/21 08:16:02;;;;;;;;;;;;;;;;;;10483426;28;19939;-75
2023/11/21 08:21:03;;;;;;;;;;;;;;;;;;10483539;28;19938;-77
2023/11/21 08:26:03;;;;;;;;;;;;;;;;;;10484787;28;20010;-76
2023/11/21 08:31:04;;;;;;;;;;;;;;;;;;10483621;28;19919;-76
2023/11/21 08:36:04;;;;;;;;;;;;;;;;;;10483692;28;19908;-81
2023/11/21 08:41:07;;;;;;;;;;;;;;;;;;10483774;28;19904;-77
2023/11/21 08:46:08;;;;;;;;;;;;;;;;;;10444797;28;19904;-75
2023/11/21 08:51:09;;;;;;;;;;;;;;;;;;10498247;28;19905;-81
2023/11/21 08:56:10;;;;;;;;;;;;;;;;;;10483383;28;20333;-75
2023/11/21 09:01:12;;;;;;;;;;;;;;;;;;10484269;28;19912;-80
2023/11/21 09:06:14;;;;;;;;;;;;;;;;;;10484177;28;20306;-80
2023/11/21 09:11:14;;;;;;;;;;;;;;;;;;10483800;28;19992;-76
2023/11/21 09:16:15;;;;;;;;;;;;;;;;;;10482884;28;19977;-81
2023/11/21 09:21:15;;;;;;;;;;;;;;;;;;10491381;28;19998;-76
2023/11/21 09:26:16;;;;;;;;;;;;;;;;;;10490627;28;20223;-76
2023/11/21 09:31:16;;;;;;;;;;;;;;;;;;10492095;28;20331;-76
2023/11/21 09:36:21;;;;;;;;;;;;;;;;;;10498218;28;19934;-79
2023/11/21 09:41:21;;;;;;;;;;;;;;;;;;10497005;28;19908;-77
2023/11/21 09:46:22;;;;;;;;;;;;;;;;;;10492716;28;20326;-77
2023/11/21 09:51:23;;;;;;;;;;;;;;;;;;10494327;28;19912;-78
2023/11/21 09:56:25;;;;;;;;;;;;;;;;;;10488914;28;19910;-77
2023/11/21 10:01:26;;;;;;;;;;;;;;;;;;10464368;28;19911;-79
2023/11/21 10:06:26;;;;;;;;;;;;;;;;;;10483145;28;19904;-77
2023/11/21 10:11:27;;;;;;;;;;;;;;;;;;10489861;28;20003;-77
2023/11/21 10:16:27;;;;;;;;;;;;;;;;;;10487881;28;19920;-77
2023/11/21 10:21:28;;;;;;;;;;;;;;;;;;10488559;28;19911;-77
2023/11/21 10:26:28;;;;;;;;;;;;;;;;;;10489188;28;20390;-84
2023/11/21 10:31:28;;;;;;;;;;;;;;;;;;10487899;28;20286;-78
2023/11/21 10:36:28;;;;;;;;;;;;;;;;;;10487971;28;19995;-80
2023/11/21 10:41:28;;;;;;;;;;;;;;;;;;10488574;28;19905;-84
2023/11/21 10:46:30;;;;;;;;;;;;;;;;;;10492390;28;20341;-78
2023/11/21 10:51:30;;;;;;;;;;;;;;;;;;10487109;28;20049;-78
2023/11/21 10:56:35;;;;;;;;;;;;;;;;;;10491290;28;20323;-79
2023/11/21 11:01:35;;;;;;;;;;;;;;;;;;10486333;28;19961;-80
2023/11/21 11:06:35;;;;;;;;;;;;;;;;;;10485916;28;20028;-77
2023/11/21 11:11:38;;;;;;;;;;;;;;;;;;10486424;28;19995;-79
2023/11/21 11:16:43;;;;;;;;;;;;;;;;;;10486399;28;19959;-76
2023/11/21 11:21:43;;;;;;;;;;;;;;;;;;10487179;28;19999;-80
2023/11/21 11:26:43;;;;;;;;;;;;;;;;;;10486910;28;19904;-82
2023/11/21 11:31:44;;;;;;;;;;;;;;;;;;10488289;28;19913;-76
2023/11/21 11:36:47;;;;;;;;;;;;;;;;;;10485604;28;19932;-81
2023/11/21 11:41:47;;;;;;;;;;;;;;;;;;10462691;28;20318;-81
2023/11/21 11:46:47;;;;;;;;;;;;;;;;;;10481328;28;19905;-76
2023/11/21 11:51:47;;;;;;;;;;;;;;;;;;10491981;28;19999;-76
2023/11/21 11:56:49;;;;;;;;;;;;;;;;;;10483839;28;19908;-77
2023/11/21 12:01:49;;;;;;;;;;;;;;;;;;10484384;28;19904;-76
2023/11/21 12:06:53;;;;;;;;;;;;;;;;;;10484845;28;19908;-77
2023/11/21 12:11:56;;;;;;;;;;;;;;;;;;10485624;28;19909;-76
2023/11/21 12:16:56;;;;;;;;;;;;;;;;;;10485207;28;19985;-78
2023/11/21 12:21:57;;;;;;;;;;;;;;;;;;10488685;28;20085;-75
2023/11/21 12:26:57;;;;;;;;;;;;;;;;;;10484811;28;19908;-77
2023/11/21 12:31:57;;;;;;;;;;;;;;;;;;10483650;28;19912;-78
2023/11/21 12:36:57;;;;;;;;;;;;;;;;;;10484887;28;19916;-78
2023/11/21 12:41:57;;;;;;;;;;;;;;;;;;10483878;28;19908;-84
2023/11/21 12:46:57;;;;;;;;;;;;;;;;;;10483625;28;20365;-77
2023/11/21 12:51:58;;;;;;;;;;;;;;;;;;10483981;28;20394;-79
2023/11/21 12:56:58;;;;;;;;;;;;;;;;;;10491319;28;19939;-76
2023/11/21 13:01:59;;;;;;;;;;;;;;;;;;10491163;28;20386;-75
2023/11/21 13:07:00;;;;;;;;;;;;;;;;;;10491512;28;19919;-77
2023/11/21 13:12:00;;;;;;;;;;;;;;;;;;10491742;28;20352;-78
2023/11/21 13:17:00;;;;;;;;;;;;;;;;;;10490220;28;19988;-76
2023/11/21 13:22:04;;;;;;;;;;;;;;;;;;10490894;28;19971;-75
2023/11/21 13:27:04;;;;;;;;;;;;;;;;;;10490192;28;19912;-76
2023/11/21 13:32:06;;;;;;;;;;;;;;;;;;10489907;28;19908;-77
2023/11/21 13:37:07;;;;;;;;;;;;;;;;;;10491612;28;19912;-76
2023/11/21 13:42:07;;;;;;;;;;;;;;;;;;10490520;28;20454;-77
2023/11/21 13:47:07;;;;;;;;;;;;;;;;;;10490653;28;19930;-80
2023/11/21 13:52:11;;;;;;;;;;;;;;;;;;10488792;28;20016;-81
2023/11/21 13:57:11;;;;;;;;;;;;;;;;;;10488645;28;19948;-79
2023/11/21 14:02:18;;;;;;;;;;;;;;;;;;10488517;28;19994;-84
2023/11/21 14:12:54;;;;;;;;;;;;;;;;;;10446571;28;19904;-77
2023/11/21 14:17:54;;;;;;;;;;;;;;;;;;10429881;28;20334;-77
2023/11/21 14:22:54;;;;;;;;;;;;;;;;;;10478754;28;19905;-77
2023/11/21 14:27:56;;;;;;;;;;;;;;;;;;10475440;28;19904;-76
2023/11/21 14:32:56;;;;;;;;;;;;;;;;;;10489490;28;19908;-80
2023/11/21 14:37:58;;;;;;;;;;;;;;;;;;10485467;28;19920;-75
2023/11/21 14:42:58;;;;;;;;;;;;;;;;;;10465355;28;19915;-79
2023/11/21 14:53:05;;;;;;;;;;;;;;;;;;10487627;28;20341;-76
2023/11/21 14:58:09;;;;;;;;;;;;;;;;;;10488782;28;19916;-75
2023/11/21 15:03:14;;;;;;;;;;;;;;;;;;10461996;28;19962;-78
2023/11/21 15:08:28;;;;;;;;;;;;;;;;;;10488808;28;19914;-84
2023/11/21 15:13:29;;;;;;;;;;;;;;;;;;10476702;28;19912;-78
2023/11/21 15:18:29;;;;;;;;;;;;;;;;;;10469003;28;19994;-80
2023/11/21 15:23:34;;;;;;;;;;;;;;;;;;10483566;28;19909;-77
2023/11/21 15:28:35;;;;;;;;;;;;;;;;;;10487205;28;20408;-80
2023/11/21 15:33:36;;;;;;;;;;;;;;;;;;10444086;22;19955;-78
2023/11/21 15:38:37;;;;;;;;;;;;;;;;;;10454167;28;20220;-79
2023/11/21 15:43:37;;;;;;;;;;;;;;;;;;10426389;28;19936;-79
2023/11/21 15:48:40;;;;;;;;;;;;;;;;;;10425319;28;19923;-80
2023/11/21 15:53:41;;;;;;;;;;;;;;;;;;10431991;28;19908;-81
2023/11/21 15:58:46;;;;;;;;;;;;;;;;;;10454866;28;20087;-80
2023/11/21 16:03:48;;;;;;;;;;;;;;;;;;10428677;28;19995;-79
2023/11/21 16:08:48;;;;;;;;;;;;;;;;;;10426704;28;19968;-78
2023/11/21 16:13:48;;;;;;;;;;;;;;;;;;10424173;28;19905;-82
2023/11/21 16:18:48;;;;;;;;;;;;;;;;;;10455620;28;19912;-78
2023/11/21 16:23:49;;;;;;;;;;;;;;;;;;10429386;28;20217;-82
2023/11/21 16:28:49;;;;;;;;;;;;;;;;;;10434511;28;20253;-79
2023/11/21 16:33:49;;;;;;;;;;;;;;;;;;10436912;28;19935;-78
2023/11/21 16:38:49;;;;;;;;;;;;;;;;;;10437189;28;20106;-76
2023/11/21 16:43:49;;;;;;;;;;;;;;;;;;10432821;28;20105;-76
2023/11/21 16:48:49;;;;;;;;;;;;;;;;;;10433650;28;20238;-76
2023/11/21 16:53:49;;;;;;;;;;;;;;;;;;10435279;28;19912;-78
2023/11/21 16:58:50;;;;;;;;;;;;;;;;;;10439961;28;19984;-78
2023/11/21 17:03:51;;;;;;;;;;;;;;;;;;10442011;28;19901;-80
2023/11/21 17:08:51;;;;;;;;;;;;;;;;;;10434721;28;20080;-77
2023/11/21 17:13:53;;;;;;;;;;;;;;;;;;10422722;28;19979;-87
2023/11/21 17:18:53;;;;;;;;;;;;;;;;;;10436582;28;19975;-75
2023/11/21 17:23:53;;;;;;;;;;;;;;;;;;10419436;28;20098;-76
2023/11/21 17:28:54;;;;;;;;;;;;;;;;;;10421097;28;20147;-78
2023/11/21 17:33:54;;;;;;;;;;;;;;;;;;10420438;28;20170;-76
2023/11/21 17:38:54;;;;;;;;;;;;;;;;;;10453048;28;20019;-72
2023/11/21 17:43:54;;;;;;;;;;;;;;;;;;10421760;28;19905;-75
2023/11/21 17:48:54;;;;;;;;;;;;;;;;;;10422192;28;19905;-75
2023/11/21 17:54:00;;;;;;;;;;;;;;;;;;10422255;28;20248;-72
2023/11/21 17:59:02;;;;;;;;;;;;;;;;;;10425572;28;19917;-75
2023/11/21 18:04:02;;;;;;;;;;;;;;;;;;10422883;28;19911;-74
2023/11/21 18:09:03;;;;;;;;;;;;;;;;;;10423166;28;20094;-77
2023/11/21 18:14:08;;;;;;;;;;;;;;;;;;10422967;28;19912;-78
2023/11/21 18:19:09;;;;;;;;;;;;;;;;;;10453158;28;20151;-80
2023/11/21 18:24:09;;;;;;;;;;;;;;;;;;10419439;28;19927;-77
2023/11/21 18:29:10;;;;;;;;;;;;;;;;;;10420861;28;20239;-81
2023/11/21 18:34:11;;;;;;;;;;;;;;;;;;10453510;28;20191;-77
2023/11/21 18:39:14;;;;;;;;;;;;;;;;;;10419127;28;19917;-75
2023/11/21 18:44:14;;;;;;;;;;;;;;;;;;10417135;28;20122;-77
2023/11/21 18:49:14;;;;;;;;;;;;;;;;;;10449244;28;19912;-78
2023/11/21 18:54:15;;;;;;;;;;;;;;;;;;10417812;28;19925;-79
2023/11/21 19:04:34;;;;;;;;;;;;;;;;;;10416406;28;19909;-73
2023/11/21 19:09:35;;;;;;;;;;;;;;;;;;10418175;28;20086;-78
2023/11/21 19:14:35;;;;;;;;;;;;;;;;;;10413936;28;20151;-76
2023/11/21 19:19:35;;;;;;;;;;;;;;;;;;10413258;28;19963;-77
2023/11/21 19:24:35;;;;;;;;;;;;;;;;;;10413289;28;20130;-75
2023/11/21 19:29:35;;;;;;;;;;;;;;;;;;10415338;28;19908;-77
2023/11/21 19:34:35;;;;;;;;;;;;;;;;;;10413973;28;19961;-77
2023/11/21 19:39:36;;;;;;;;;;;;;;;;;;10413780;28;19901;-73
2023/11/21 19:44:38;;;;;;;;;;;;;;;;;;10413761;28;20103;-73
2023/11/21 19:49:38;;;;;;;;;;;;;;;;;;10413088;28;19908;-74
2023/11/21 19:54:38;;;;;;;;;;;;;;;;;;10413620;28;19951;-76
2023/11/21 19:59:43;;;;;;;;;;;;;;;;;;10417004;28;19901;-72
2023/11/21 20:04:43;;;;;;;;;;;;;;;;;;10417225;28;19905;-76
2023/11/21 20:09:43;;;;;;;;;;;;;;;;;;10418155;28;20205;-72
2023/11/21 20:14:43;;;;;;;;;;;;;;;;;;10430897;28;20114;-72
2023/11/21 20:19:43;;;;;;;;;;;;;;;;;;10433202;28;19983;-72
2023/11/21 20:24:43;;;;;;;;;;;;;;;;;;10449306;28;19909;-71
2023/11/21 20:29:44;;;;;;;;;;;;;;;;;;10417168;28;19936;-72
2023/11/21 20:34:44;;;;;;;;;;;;;;;;;;10417004;28;19936;-72
2023/11/21 20:39:46;;;;;;;;;;;;;;;;;;10416851;28;19939;-72
2023/11/21 20:44:46;;;;;;;;;;;;;;;;;;10416957;28;19901;-71
2023/11/21 20:49:46;;;;;;;;;;;;;;;;;;10412621;28;20176;-72
2023/11/21 20:54:46;;;;;;;;;;;;;;;;;;10409934;28;20169;-72
2023/11/21 20:59:48;;;;;;;;;;;;;;;;;;10416794;28;19901;-71
2023/11/21 21:04:48;;;;;;;;;;;;;;;;;;10416568;28;19908;-72
2023/11/21 21:09:48;;;;;;;;;;;;;;;;;;10416314;28;20123;-72
2023/11/21 21:14:49;;;;;;;;;;;;;;;;;;10419550;28;19913;-75
2023/11/21 21:19:49;;;;;;;;;;;;;;;;;;10387771;28;20207;-71
2023/11/21 21:24:49;;;;;;;;;;;;;;;;;;10424686;28;19936;-71
2023/11/21 21:29:49;;;;;;;;;;;;;;;;;;10423554;28;19932;-72
2023/11/21 21:34:49;;;;;;;;;;;;;;;;;;10422801;28;20106;-73
2023/11/21 21:39:49;;;;;;;;;;;;;;;;;;10382677;28;20131;-71
2023/11/21 21:44:49;;;;;;;;;;;;;;;;;;10419150;28;19947;-71
2023/11/21 21:49:50;;;;;;;;;;;;;;;;;;10422735;28;19901;-71
2023/11/21 21:54:51;;;;;;;;;;;;;;;;;;10422624;28;19908;-71
2023/11/21 21:59:51;;;;;;;;;;;;;;;;;;10422070;28;19901;-72
2023/11/21 22:04:51;;;;;;;;;;;;;;;;;;10422001;28;20110;-71
2023/11/21 22:09:51;;;;;;;;;;;;;;;;;;10421880;28;19901;-71
2023/11/21 22:14:52;;;;;;;;;;;;;;;;;;10436739;28;20394;-71
2023/11/21 22:19:52;;;;;;;;;;;;;;;;;;10420980;28;19932;-72
2023/11/21 22:24:52;;;;;;;;;;;;;;;;;;10452101;28;19901;-71
2023/11/21 22:29:52;;;;;;;;;;;;;;;;;;10420852;28;19955;-71
2023/11/21 22:34:53;;;;;;;;;;;;;;;;;;10420621;28;20096;-71
2023/11/21 22:39:54;;;;;;;;;;;;;;;;;;10420799;28;20191;-71
2023/11/21 22:44:54;;;;;;;;;;;;;;;;;;10420973;28;20115;-71
2023/11/21 22:49:54;;;;;;;;;;;;;;;;;;10420521;28;19923;-72
2023/11/21 22:54:54;;;;;;;;;;;;;;;;;;10420242;28;19932;-71
2023/11/21 22:59:54;;;;;;;;;;;;;;;;;;10420239;28;20080;-71
2023/11/21 23:04:55;;;;;;;;;;;;;;;;;;10406261;28;19909;-71
2023/11/21 23:09:55;;;;;;;;;;;;;;;;;;10435318;28;19931;-72
2023/11/21 23:14:55;;;;;;;;;;;;;;;;;;10419678;28;19908;-71
2023/11/21 23:19:55;;;;;;;;;;;;;;;;;;10419384;28;19905;-72
2023/11/21 23:24:55;;;;;;;;;;;;;;;;;;10419053;28;19908;-70
2023/11/21 23:29:55;;;;;;;;;;;;;;;;;;10418987;28;20019;-72
2023/11/21 23:34:55;;;;;;;;;;;;;;;;;;10418710;28;19917;-72
2023/11/21 23:39:56;;;;;;;;;;;;;;;;;;10418029;28;20202;-72
2023/11/21 23:44:56;;;;;;;;;;;;;;;;;;10418270;28;19908;-72
2023/11/21 23:49:57;;;;;;;;;;;;;;;;;;10418153;28;19979;-71
2023/11/21 23:54:58;;;;;;;;;;;;;;;;;;10418472;28;19932;-72
2023/11/21 23:59:58;;;;;;;;;;;;;;;;;;10433055;28;19936;-71
